La Vernia, Texas
Current Conditions -  °F | °C
As of 3:20 AM on Friday 19 Dec 2014 (Local Time) from KRND Reporting Station
Overcast Overcast  
Wind Chill: 52°   Ceiling: 800
Heat Index: 52°   Visibility: 10mi
Dew Point: 50°   Wind: 10mph
Humidity: 94%   Direction: 360°N
Pressure: 30.03"   Gusts: NA
Location:  29.36°N, 98.12°W
Report Text: KRND 190920Z AUTO 36009KT 10SM BKN008 OVC017 11/10 A3003 RMK AO2 RAE0901DZB0901E0905 CIG 007V017
Loading
Personal Weather Stations






























Interactive Weather Map New forecast layout! Learn more

10-Day Weather Forecast

Advertisements
Track Severe Weather on mobile